sensor_id;sensor_type;location;lat;lon;timestamp;pressure;altitude;pressure_sealevel;temperature;humidity
11198;BME280;5655;48.744;9.162;2023-02-21T00:01:05;96640.50;;;9.12;100.00
11198;BME280;5655;48.744;9.162;2023-02-21T00:03:49;96638.50;;;9.40;100.00
11198;BME280;5655;48.744;9.162;2023-02-21T00:06:33;96639.28;;;9.25;100.00
11198;BME280;5655;48.744;9.162;2023-02-21T00:09:17;96643.84;;;9.40;100.00
11198;BME280;5655;48.744;9.162;2023-02-21T00:12:01;96634.31;;;9.08;100.00
11198;BME280;5655;48.744;9.162;2023-02-21T00:14:45;96633.25;;;9.28;100.00
11198;BME280;5655;48.744;9.162;2023-02-21T00:17:29;96629.19;;;9.34;100.00
11198;BME280;5655;48.744;9.162;2023-02-21T00:20:13;96627.84;;;9.25;100.00
11198;BME280;5655;48.744;9.162;2023-02-21T00:22:57;96630.06;;;9.38;100.00
11198;BME280;5655;48.744;9.162;2023-02-21T00:25:41;96635.50;;;9.26;100.00
11198;BME280;5655;48.744;9.162;2023-02-21T00:28:25;96629.53;;;9.33;100.00
11198;BME280;5655;48.744;9.162;2023-02-21T00:31:09;96624.97;;;9.33;100.00
11198;BME280;5655;48.744;9.162;2023-02-21T00:33:53;96625.25;;;9.28;100.00
11198;BME280;5655;48.744;9.162;2023-02-21T00:36:37;96614.03;;;9.38;100.00
11198;BME280;5655;48.744;9.162;2023-02-21T00:39:21;96621.78;;;9.43;100.00
11198;BME280;5655;48.744;9.162;2023-02-21T00:42:05;96622.88;;;9.42;100.00
11198;BME280;5655;48.744;9.162;2023-02-21T00:44:49;96623.03;;;9.49;100.00
11198;BME280;5655;48.744;9.162;2023-02-21T00:47:32;96621.50;;;9.48;100.00
11198;BME280;5655;48.744;9.162;2023-02-21T00:50:16;96617.84;;;9.22;100.00
11198;BME280;5655;48.744;9.162;2023-02-21T00:53:00;96613.59;;;9.36;100.00
11198;BME280;5655;48.744;9.162;2023-02-21T00:55:44;96615.13;;;9.37;100.00
11198;BME280;5655;48.744;9.162;2023-02-21T00:58:28;96619.69;;;9.52;100.00
11198;BME280;5655;48.744;9.162;2023-02-21T01:01:12;96611.78;;;9.40;100.00
11198;BME280;5655;48.744;9.162;2023-02-21T01:03:57;96605.63;;;9.21;100.00
11198;BME280;5655;48.744;9.162;2023-02-21T01:06:41;96605.00;;;9.27;100.00
11198;BME280;5655;48.744;9.162;2023-02-21T01:09:25;96602.59;;;9.22;100.00
11198;BME280;5655;48.744;9.162;2023-02-21T01:12:09;96611.22;;;9.50;100.00
11198;BME280;5655;48.744;9.162;2023-02-21T01:14:53;96607.94;;;9.22;100.00
11198;BME280;5655;48.744;9.162;2023-02-21T01:17:37;96606.53;;;9.28;100.00
11198;BME280;5655;48.744;9.162;2023-02-21T01:20:21;96604.03;;;9.35;100.00
11198;BME280;5655;48.744;9.162;2023-02-21T01:23:05;96608.69;;;9.38;100.00
11198;BME280;5655;48.744;9.162;2023-02-21T01:25:49;96611.69;;;9.52;100.00
11198;BME280;5655;48.744;9.162;2023-02-21T01:28:33;96606.16;;;9.45;100.00
11198;BME280;5655;48.744;9.162;2023-02-21T01:31:20;96602.53;;;9.73;100.00
11198;BME280;5655;48.744;9.162;2023-02-21T01:34:04;96609.25;;;9.47;100.00
11198;BME280;5655;48.744;9.162;2023-02-21T01:36:48;96604.00;;;9.51;100.00
11198;BME280;5655;48.744;9.162;2023-02-21T01:39:32;96602.22;;;9.39;100.00
11198;BME280;5655;48.744;9.162;2023-02-21T01:42:16;96599.00;;;9.49;100.00
11198;BME280;5655;48.744;9.162;2023-02-21T01:48:18;96594.88;;;9.90;100.00
11198;BME280;5655;48.744;9.162;2023-02-21T01:51:04;96597.78;;;9.82;100.00
11198;BME280;5655;48.744;9.162;2023-02-21T01:53:49;96587.34;;;9.77;100.00
11198;BME280;5655;48.744;9.162;2023-02-21T01:56:34;96583.28;;;9.83;100.00
11198;BME280;5655;48.744;9.162;2023-02-21T01:59:18;96588.47;;;9.76;100.00
11198;BME280;5655;48.744;9.162;2023-02-21T02:02:17;96588.00;;;9.70;100.00
11198;BME280;5655;48.744;9.162;2023-02-21T02:05:03;96587.22;;;9.70;100.00
11198;BME280;5655;48.744;9.162;2023-02-21T02:07:48;96582.03;;;9.96;100.00
11198;BME280;5655;48.744;9.162;2023-02-21T02:10:32;96576.38;;;9.43;100.00
11198;BME280;5655;48.744;9.162;2023-02-21T02:16:20;96574.13;;;9.84;100.00
11198;BME280;5655;48.744;9.162;2023-02-21T02:27:46;96573.44;;;9.87;100.00
11198;BME280;5655;48.744;9.162;2023-02-21T02:34:03;96566.53;;;9.86;100.00
11198;BME280;5655;48.744;9.162;2023-02-21T02:36:27;96561.19;;;9.67;100.00
11198;BME280;5655;48.744;9.162;2023-02-21T02:39:01;96561.59;;;9.69;100.00
11198;BME280;5655;48.744;9.162;2023-02-21T02:41:50;96557.53;;;9.94;100.00
11198;BME280;5655;48.744;9.162;2023-02-21T02:44:25;96556.97;;;9.85;100.00
11198;BME280;5655;48.744;9.162;2023-02-21T02:46:56;96557.66;;;9.63;100.00
11198;BME280;5655;48.744;9.162;2023-02-21T02:49:27;96555.41;;;10.03;100.00
11198;BME280;5655;48.744;9.162;2023-02-21T02:51:53;96542.91;;;9.88;100.00
11198;BME280;5655;48.744;9.162;2023-02-21T02:54:19;96546.41;;;9.34;100.00
11198;BME280;5655;48.744;9.162;2023-02-21T02:56:45;96547.06;;;9.66;100.00
11198;BME280;5655;48.744;9.162;2023-02-21T02:59:20;96540.16;;;9.84;100.00
11198;BME280;5655;48.744;9.162;2023-02-21T03:09:56;96552.47;;;9.70;100.00
11198;BME280;5655;48.744;9.162;2023-02-21T03:17:57;96550.44;;;9.82;100.00
11198;BME280;5655;48.744;9.162;2023-02-21T03:20:25;96546.34;;;9.69;100.00
11198;BME280;5655;48.744;9.162;2023-02-21T03:22:52;96550.50;;;9.67;100.00
11198;BME280;5655;48.744;9.162;2023-02-21T03:25:20;96546.41;;;9.73;100.00
11198;BME280;5655;48.744;9.162;2023-02-21T03:27:46;96546.56;;;9.61;100.00
11198;BME280;5655;48.744;9.162;2023-02-21T03:30:12;96541.63;;;9.82;100.00
11198;BME280;5655;48.744;9.162;2023-02-21T03:32:43;96539.94;;;9.54;100.00
11198;BME280;5655;48.744;9.162;2023-02-21T03:35:10;96542.03;;;9.45;100.00
11198;BME280;5655;48.744;9.162;2023-02-21T03:37:43;96541.06;;;9.73;100.00
11198;BME280;5655;48.744;9.162;2023-02-21T03:40:30;96532.22;;;9.88;100.00
11198;BME280;5655;48.744;9.162;2023-02-21T03:42:57;96541.00;;;9.69;100.00
11198;BME280;5655;48.744;9.162;2023-02-21T03:45:23;96535.16;;;9.83;100.00
11198;BME280;5655;48.744;9.162;2023-02-21T03:47:48;96542.19;;;9.52;100.00
11198;BME280;5655;48.744;9.162;2023-02-21T03:50:14;96540.28;;;9.72;100.00
11198;BME280;5655;48.744;9.162;2023-02-21T03:52:40;96536.78;;;9.87;100.00
11198;BME280;5655;48.744;9.162;2023-02-21T03:55:06;96530.66;;;9.87;100.00
11198;BME280;5655;48.744;9.162;2023-02-21T03:57:31;96525.91;;;9.57;100.00
11198;BME280;5655;48.744;9.162;2023-02-21T03:59:57;96538.94;;;9.63;100.00
11198;BME280;5655;48.744;9.162;2023-02-21T04:02:22;96541.00;;;9.69;100.00
11198;BME280;5655;48.744;9.162;2023-02-21T04:04:48;96538.69;;;9.68;100.00
11198;BME280;5655;48.744;9.162;2023-02-21T04:07:14;96537.22;;;9.70;100.00
11198;BME280;5655;48.744;9.162;2023-02-21T04:09:40;96540.66;;;9.71;100.00
11198;BME280;5655;48.744;9.162;2023-02-21T04:12:06;96533.50;;;9.75;100.00
11198;BME280;5655;48.744;9.162;2023-02-21T04:14:31;96543.34;;;9.71;100.00
11198;BME280;5655;48.744;9.162;2023-02-21T04:16:56;96532.50;;;9.64;100.00
11198;BME280;5655;48.744;9.162;2023-02-21T04:19:22;96524.88;;;9.85;100.00
11198;BME280;5655;48.744;9.162;2023-02-21T04:21:47;96532.19;;;9.30;100.00
11198;BME280;5655;48.744;9.162;2023-02-21T04:24:12;96533.34;;;9.68;100.00
11198;BME280;5655;48.744;9.162;2023-02-21T04:26:38;96532.59;;;10.09;100.00
11198;BME280;5655;48.744;9.162;2023-02-21T04:29:04;96534.56;;;9.93;100.00
11198;BME280;5655;48.744;9.162;2023-02-21T04:31:29;96527.13;;;10.21;100.00
11198;BME280;5655;48.744;9.162;2023-02-21T04:33:56;96530.63;;;10.06;100.00
11198;BME280;5655;48.744;9.162;2023-02-21T04:36:21;96543.66;;;9.88;100.00
11198;BME280;5655;48.744;9.162;2023-02-21T04:38:47;96538.94;;;9.63;100.00
11198;BME280;5655;48.744;9.162;2023-02-21T04:41:14;96533.75;;;9.50;100.00
11198;BME280;5655;48.744;9.162;2023-02-21T04:43:41;96538.25;;;9.85;100.00
11198;BME280;5655;48.744;9.162;2023-02-21T04:46:07;96537.47;;;9.84;100.00
11198;BME280;5655;48.744;9.162;2023-02-21T04:48:32;96537.47;;;9.46;100.00
11198;BME280;5655;48.744;9.162;2023-02-21T04:50:58;96538.81;;;9.55;100.00
11198;BME280;5655;48.744;9.162;2023-02-21T04:53:23;96535.44;;;9.39;100.00
11198;BME280;5655;48.744;9.162;2023-02-21T04:55:48;96540.84;;;9.62;100.00
11198;BME280;5655;48.744;9.162;2023-02-21T04:58:14;96530.94;;;9.63;100.00
11198;BME280;5655;48.744;9.162;2023-02-21T05:00:39;96527.25;;;9.32;100.00
11198;BME280;5655;48.744;9.162;2023-02-21T05:03:04;96525.28;;;9.10;100.00
11198;BME280;5655;48.744;9.162;2023-02-21T05:05:29;96523.09;;;9.16;100.00
11198;BME280;5655;48.744;9.162;2023-02-21T05:07:55;96528.81;;;8.98;100.00
11198;BME280;5655;48.744;9.162;2023-02-21T05:10:20;96527.09;;;9.06;100.00
11198;BME280;5655;48.744;9.162;2023-02-21T05:12:45;96517.16;;;9.22;100.00
11198;BME280;5655;48.744;9.162;2023-02-21T05:15:12;96521.59;;;9.53;100.00
11198;BME280;5655;48.744;9.162;2023-02-21T05:17:38;96515.41;;;9.49;100.00
11198;BME280;5655;48.744;9.162;2023-02-21T05:20:04;96517.16;;;9.61;100.00
11198;BME280;5655;48.744;9.162;2023-02-21T05:22:37;96515.91;;;9.35;100.00
11198;BME280;5655;48.744;9.162;2023-02-21T05:25:17;96518.50;;;9.51;100.00
11198;BME280;5655;48.744;9.162;2023-02-21T05:27:43;96516.09;;;9.46;100.00
11198;BME280;5655;48.744;9.162;2023-02-21T05:30:10;96517.72;;;9.50;100.00
11198;BME280;5655;48.744;9.162;2023-02-21T05:32:35;96516.44;;;9.06;100.00
11198;BME280;5655;48.744;9.162;2023-02-21T05:35:00;96510.56;;;8.34;100.00
11198;BME280;5655;48.744;9.162;2023-02-21T05:37:26;96515.81;;;8.31;100.00
11198;BME280;5655;48.744;9.162;2023-02-21T05:39:51;96518.75;;;8.41;100.00
11198;BME280;5655;48.744;9.162;2023-02-21T05:42:16;96515.63;;;8.39;100.00
11198;BME280;5655;48.744;9.162;2023-02-21T05:44:45;96515.97;;;8.53;100.00
11198;BME280;5655;48.744;9.162;2023-02-21T05:47:12;96523.38;;;8.76;100.00
11198;BME280;5655;48.744;9.162;2023-02-21T05:49:38;96523.84;;;8.81;100.00
11198;BME280;5655;48.744;9.162;2023-02-21T05:52:04;96517.69;;;8.61;100.00
11198;BME280;5655;48.744;9.162;2023-02-21T05:54:29;96532.41;;;8.40;100.00
11198;BME280;5655;48.744;9.162;2023-02-21T05:56:55;96533.50;;;8.23;100.00
11198;BME280;5655;48.744;9.162;2023-02-21T05:59:21;96521.69;;;8.08;100.00
11198;BME280;5655;48.744;9.162;2023-02-21T06:01:47;96522.84;;;8.39;100.00
11198;BME280;5655;48.744;9.162;2023-02-21T06:04:13;96531.69;;;7.84;100.00
11198;BME280;5655;48.744;9.162;2023-02-21T06:06:38;96523.66;;;8.11;100.00
11198;BME280;5655;48.744;9.162;2023-02-21T06:09:04;96521.91;;;7.88;100.00
11198;BME280;5655;48.744;9.162;2023-02-21T06:11:32;96525.03;;;8.05;100.00
11198;BME280;5655;48.744;9.162;2023-02-21T06:14:00;96526.00;;;8.13;100.00
11198;BME280;5655;48.744;9.162;2023-02-21T06:16:36;96521.03;;;8.27;100.00
11198;BME280;5655;48.744;9.162;2023-02-21T06:19:04;96523.72;;;7.99;100.00
11198;BME280;5655;48.744;9.162;2023-02-21T06:21:30;96519.94;;;7.85;100.00
11198;BME280;5655;48.744;9.162;2023-02-21T06:23:55;96525.13;;;7.81;100.00
11198;BME280;5655;48.744;9.162;2023-02-21T06:26:21;96523.00;;;7.87;100.00
11198;BME280;5655;48.744;9.162;2023-02-21T06:28:46;96516.44;;;7.68;100.00
11198;BME280;5655;48.744;9.162;2023-02-21T06:31:12;96516.94;;;7.58;100.00
11198;BME280;5655;48.744;9.162;2023-02-21T06:33:38;96517.13;;;7.65;100.00
11198;BME280;5655;48.744;9.162;2023-02-21T06:36:05;96509.50;;;7.80;100.00
11198;BME280;5655;48.744;9.162;2023-02-21T06:38:30;96510.31;;;7.68;100.00
11198;BME280;5655;48.744;9.162;2023-02-21T06:40:55;96502.78;;;7.42;100.00
11198;BME280;5655;48.744;9.162;2023-02-21T06:43:21;96515.94;;;7.79;100.00
11198;BME280;5655;48.744;9.162;2023-02-21T06:45:46;96513.59;;;8.05;100.00
11198;BME280;5655;48.744;9.162;2023-02-21T06:48:15;96507.31;;;8.29;100.00
11198;BME280;5655;48.744;9.162;2023-02-21T06:50:41;96526.16;;;8.20;100.00
11198;BME280;5655;48.744;9.162;2023-02-21T06:53:06;96510.47;;;8.31;100.00
11198;BME280;5655;48.744;9.162;2023-02-21T06:55:31;96520.63;;;8.41;100.00
11198;BME280;5655;48.744;9.162;2023-02-21T06:57:57;96516.50;;;8.43;100.00
11198;BME280;5655;48.744;9.162;2023-02-21T07:00:22;96526.41;;;8.58;100.00
11198;BME280;5655;48.744;9.162;2023-02-21T07:02:47;96527.25;;;8.62;100.00
11198;BME280;5655;48.744;9.162;2023-02-21T07:05:13;96519.66;;;8.64;100.00
11198;BME280;5655;48.744;9.162;2023-02-21T07:07:40;96533.59;;;8.74;100.00
11198;BME280;5655;48.744;9.162;2023-02-21T07:10:07;96529.13;;;8.78;100.00
11198;BME280;5655;48.744;9.162;2023-02-21T07:12:32;96533.09;;;8.52;100.00
11198;BME280;5655;48.744;9.162;2023-02-21T07:14:57;96536.53;;;8.69;100.00
11198;BME280;5655;48.744;9.162;2023-02-21T07:17:23;96537.81;;;8.75;100.00
11198;BME280;5655;48.744;9.162;2023-02-21T07:19:48;96530.19;;;8.57;100.00
11198;BME280;5655;48.744;9.162;2023-02-21T07:22:13;96535.50;;;8.73;100.00
11198;BME280;5655;48.744;9.162;2023-02-21T07:24:38;96527.03;;;8.87;100.00
11198;BME280;5655;48.744;9.162;2023-02-21T07:27:05;96529.38;;;8.88;100.00
11198;BME280;5655;48.744;9.162;2023-02-21T07:29:31;96526.66;;;9.04;100.00
11198;BME280;5655;48.744;9.162;2023-02-21T07:31:56;96525.28;;;9.10;100.00
11198;BME280;5655;48.744;9.162;2023-02-21T07:34:22;96532.06;;;9.23;100.00
11198;BME280;5655;48.744;9.162;2023-02-21T07:36:48;96526.16;;;9.33;100.00
11198;BME280;5655;48.744;9.162;2023-02-21T07:39:13;96528.28;;;9.43;100.00
11198;BME280;5655;48.744;9.162;2023-02-21T07:41:38;96519.97;;;9.48;100.00
11198;BME280;5655;48.744;9.162;2023-02-21T07:44:04;96534.66;;;9.58;100.00
11198;BME280;5655;48.744;9.162;2023-02-21T07:46:29;96527.91;;;9.64;100.00
11198;BME280;5655;48.744;9.162;2023-02-21T07:48:55;96526.72;;;9.42;100.00
11198;BME280;5655;48.744;9.162;2023-02-21T07:51:20;96528.84;;;9.52;100.00
11198;BME280;5655;48.744;9.162;2023-02-21T07:53:46;96524.53;;;9.86;100.00
11198;BME280;5655;48.744;9.162;2023-02-21T07:56:11;96532.41;;;9.98;100.00
11198;BME280;5655;48.744;9.162;2023-02-21T07:58:37;96534.16;;;9.72;100.00
11198;BME280;5655;48.744;9.162;2023-02-21T08:01:06;96528.97;;;9.79;100.00
11198;BME280;5655;48.744;9.162;2023-02-21T08:03:32;96527.41;;;9.97;100.00
11198;BME280;5655;48.744;9.162;2023-02-21T08:05:58;96539.25;;;9.77;100.00
11198;BME280;5655;48.744;9.162;2023-02-21T08:08:24;96523.97;;;10.16;100.00
11198;BME280;5655;48.744;9.162;2023-02-21T08:10:50;96528.09;;;10.13;100.00
11198;BME280;5655;48.744;9.162;2023-02-21T08:13:15;96525.81;;;10.34;100.00
11198;BME280;5655;48.744;9.162;2023-02-21T08:15:40;96535.19;;;10.25;100.00
11198;BME280;5655;48.744;9.162;2023-02-21T08:18:06;96532.06;;;10.65;100.00
11198;BME280;5655;48.744;9.162;2023-02-21T08:20:31;96530.25;;;10.50;100.00
11198;BME280;5655;48.744;9.162;2023-02-21T08:22:56;96533.22;;;10.67;100.00
11198;BME280;5655;48.744;9.162;2023-02-21T08:25:22;96531.59;;;10.85;100.00
11198;BME280;5655;48.744;9.162;2023-02-21T08:27:47;96532.19;;;10.98;100.00
11198;BME280;5655;48.744;9.162;2023-02-21T08:30:18;96536.28;;;10.92;100.00
11198;BME280;5655;48.744;9.162;2023-02-21T08:32:43;96535.03;;;11.09;100.00
11198;BME280;5655;48.744;9.162;2023-02-21T08:35:13;96543.41;;;11.07;100.00
11198;BME280;5655;48.744;9.162;2023-02-21T08:37:39;96537.31;;;11.10;100.00
11198;BME280;5655;48.744;9.162;2023-02-21T08:40:10;96532.56;;;11.26;100.00
11198;BME280;5655;48.744;9.162;2023-02-21T08:42:35;96544.06;;;11.57;100.00
11198;BME280;5655;48.744;9.162;2023-02-21T08:45:01;96544.13;;;11.60;100.00
11198;BME280;5655;48.744;9.162;2023-02-21T08:47:26;96544.13;;;11.60;100.00
11198;BME280;5655;48.744;9.162;2023-02-21T08:49:51;96543.38;;;11.93;100.00
11198;BME280;5655;48.744;9.162;2023-02-21T08:52:18;96539.47;;;12.20;100.00
11198;BME280;5655;48.744;9.162;2023-02-21T08:54:45;96536.31;;;12.11;100.00
11198;BME280;5655;48.744;9.162;2023-02-21T08:57:10;96540.28;;;12.24;100.00
11198;BME280;5655;48.744;9.162;2023-02-21T08:59:40;96537.03;;;12.45;100.00
11198;BME280;5655;48.744;9.162;2023-02-21T09:02:19;96538.34;;;12.69;100.00
11198;BME280;5655;48.744;9.162;2023-02-21T09:04:46;96534.41;;;12.56;100.00
11198;BME280;5655;48.744;9.162;2023-02-21T09:07:16;96530.75;;;12.78;100.00
11198;BME280;5655;48.744;9.162;2023-02-21T09:09:42;96537.09;;;12.56;100.00
11198;BME280;5655;48.744;9.162;2023-02-21T09:12:08;96533.66;;;13.06;100.00
11198;BME280;5655;48.744;9.162;2023-02-21T09:14:35;96537.38;;;13.46;100.00
11198;BME280;5655;48.744;9.162;2023-02-21T09:17:01;96541.69;;;13.68;100.00
11198;BME280;5655;48.744;9.162;2023-02-21T09:19:27;96540.03;;;13.39;100.00
11198;BME280;5655;48.744;9.162;2023-02-21T09:21:52;96535.16;;;13.62;100.00
11198;BME280;5655;48.744;9.162;2023-02-21T09:24:21;96539.66;;;13.44;100.00
11198;BME280;5655;48.744;9.162;2023-02-21T09:26:53;96536.03;;;13.98;100.00
11198;BME280;5655;48.744;9.162;2023-02-21T09:29:21;96543.84;;;14.28;100.00
11198;BME280;5655;48.744;9.162;2023-02-21T09:31:48;96535.69;;;14.06;100.00
11198;BME280;5655;48.744;9.162;2023-02-21T09:34:13;96531.47;;;14.09;100.00
11198;BME280;5655;48.744;9.162;2023-02-21T09:36:39;96542.66;;;14.18;100.00
11198;BME280;5655;48.744;9.162;2023-02-21T09:39:05;96536.88;;;14.16;100.00
11198;BME280;5655;48.744;9.162;2023-02-21T09:41:31;96536.97;;;14.41;100.00
11198;BME280;5655;48.744;9.162;2023-02-21T09:43:58;96526.97;;;14.87;100.00
11198;BME280;5655;48.744;9.162;2023-02-21T09:46:43;96520.81;;;15.01;100.00
11198;BME280;5655;48.744;9.162;2023-02-21T09:49:30;96524.53;;;15.50;100.00
11198;BME280;5655;48.744;9.162;2023-02-21T09:51:57;96530.44;;;15.06;100.00
11198;BME280;5655;48.744;9.162;2023-02-21T09:54:31;96521.50;;;15.51;100.00
11198;BME280;5655;48.744;9.162;2023-02-21T09:57:00;96525.38;;;15.29;100.00
11198;BME280;5655;48.744;9.162;2023-02-21T09:59:26;96526.84;;;15.65;100.00
11198;BME280;5655;48.744;9.162;2023-02-21T10:07:58;96522.59;;;16.41;100.00
11198;BME280;5655;48.744;9.162;2023-02-21T10:10:39;96519.09;;;16.44;100.00
11198;BME280;5655;48.744;9.162;2023-02-21T10:16:27;96518.47;;;17.21;90.86
11198;BME280;5655;48.744;9.162;2023-02-21T10:19:13;96516.44;;;16.92;91.14
11198;BME280;5655;48.744;9.162;2023-02-21T10:21:44;96513.81;;;17.22;83.09
11198;BME280;5655;48.744;9.162;2023-02-21T10:24:20;96523.56;;;17.16;90.82
11198;BME280;5655;48.744;9.162;2023-02-21T10:26:51;96510.69;;;17.27;99.16
11198;BME280;5655;48.744;9.162;2023-02-21T10:29:36;96517.38;;;17.15;82.76
11198;BME280;5655;48.744;9.162;2023-02-21T10:32:03;96509.41;;;17.39;82.47
11198;BME280;5655;48.744;9.162;2023-02-21T10:34:31;96513.09;;;17.18;88.47
11198;BME280;5655;48.744;9.162;2023-02-21T10:37:03;96512.78;;;17.09;83.45
11198;BME280;5655;48.744;9.162;2023-02-21T10:39:39;96512.44;;;18.12;80.07
11198;BME280;5655;48.744;9.162;2023-02-21T10:42:14;96513.59;;;17.81;78.05
11198;BME280;5655;48.744;9.162;2023-02-21T10:44:43;96508.53;;;17.83;77.79
11198;BME280;5655;48.744;9.162;2023-02-21T10:47:22;96508.66;;;18.59;73.80
11198;BME280;5655;48.744;9.162;2023-02-21T10:50:04;96517.84;;;17.82;73.79
11198;BME280;5655;48.744;9.162;2023-02-21T10:52:36;96510.88;;;18.11;76.08
11198;BME280;5655;48.744;9.162;2023-02-21T10:55:05;96508.63;;;18.63;69.65
11198;BME280;5655;48.744;9.162;2023-02-21T10:57:39;96509.75;;;18.89;70.03
11198;BME280;5655;48.744;9.162;2023-02-21T11:00:07;96498.31;;;19.21;65.21
11198;BME280;5655;48.744;9.162;2023-02-21T11:02:39;96499.16;;;19.18;64.37
11198;BME280;5655;48.744;9.162;2023-02-21T11:05:18;96496.84;;;19.16;65.99
11198;BME280;5655;48.744;9.162;2023-02-21T11:07:57;96489.34;;;19.67;62.75
11198;BME280;5655;48.744;9.162;2023-02-21T11:10:27;96485.63;;;19.77;60.93
11198;BME280;5655;48.744;9.162;2023-02-21T11:13:05;96481.47;;;20.08;59.77
11198;BME280;5655;48.744;9.162;2023-02-21T11:15:31;96479.34;;;19.40;62.69
11198;BME280;5655;48.744;9.162;2023-02-21T11:18:14;96480.06;;;19.84;59.34
11198;BME280;5655;48.744;9.162;2023-02-21T11:20:40;96475.47;;;19.81;58.18
11198;BME280;5655;48.744;9.162;2023-02-21T11:23:18;96476.28;;;20.33;60.65
11198;BME280;5655;48.744;9.162;2023-02-21T11:25:44;96473.72;;;20.26;63.28
11198;BME280;5655;48.744;9.162;2023-02-21T11:30:49;96463.22;;;20.45;65.62
11198;BME280;5655;48.744;9.162;2023-02-21T11:33:20;96453.31;;;20.99;59.36
11198;BME280;5655;48.744;9.162;2023-02-21T11:35:47;96458.88;;;20.11;63.73
11198;BME280;5655;48.744;9.162;2023-02-21T11:41:00;96443.44;;;20.24;65.13
11198;BME280;5655;48.744;9.162;2023-02-21T11:43:32;96442.28;;;20.74;61.38
11198;BME280;5655;48.744;9.162;2023-02-21T11:48:42;96438.13;;;21.31;56.22
11198;BME280;5655;48.744;9.162;2023-02-21T11:51:20;96437.19;;;20.60;57.55
11198;BME280;5655;48.744;9.162;2023-02-21T11:53:46;96429.38;;;20.46;56.67
11198;BME280;5655;48.744;9.162;2023-02-21T11:59:13;96417.81;;;21.48;58.27
11198;BME280;5655;48.744;9.162;2023-02-21T12:07:32;96403.34;;;21.63;53.56
11198;BME280;5655;48.744;9.162;2023-02-21T12:10:18;96396.84;;;21.45;52.63
11198;BME280;5655;48.744;9.162;2023-02-21T12:13:09;96394.84;;;21.74;55.25
11198;BME280;5655;48.744;9.162;2023-02-21T12:16:04;96393.69;;;22.26;53.22
11198;BME280;5655;48.744;9.162;2023-02-21T12:19:01;96387.56;;;22.22;50.88
11198;BME280;5655;48.744;9.162;2023-02-21T12:27:00;96375.47;;;21.97;51.55
11198;BME280;5655;48.744;9.162;2023-02-21T12:29:48;96373.06;;;21.61;51.71
11198;BME280;5655;48.744;9.162;2023-02-21T12:41:07;96357.13;;;22.23;50.58
11198;BME280;5655;48.744;9.162;2023-02-21T12:43:55;96347.75;;;21.73;49.69
11198;BME280;5655;48.744;9.162;2023-02-21T12:46:35;96354.28;;;22.14;48.96
11198;BME280;5655;48.744;9.162;2023-02-21T12:49:13;96338.94;;;22.07;48.74
11198;BME280;5655;48.744;9.162;2023-02-21T12:51:48;96341.97;;;22.09;49.88
11198;BME280;5655;48.744;9.162;2023-02-21T12:57:13;96327.03;;;22.74;47.84
11198;BME280;5655;48.744;9.162;2023-02-21T13:02:28;96317.19;;;22.76;46.87
11198;BME280;5655;48.744;9.162;2023-02-21T13:05:01;96311.91;;;22.82;46.81
11198;BME280;5655;48.744;9.162;2023-02-21T13:07:50;96299.81;;;23.14;46.43
11198;BME280;5655;48.744;9.162;2023-02-21T13:10:26;96299.59;;;22.99;46.83
11198;BME280;5655;48.744;9.162;2023-02-21T13:13:10;96291.88;;;23.28;45.42
11198;BME280;5655;48.744;9.162;2023-02-21T13:15:39;96281.25;;;22.99;46.29
11198;BME280;5655;48.744;9.162;2023-02-21T13:18:20;96283.84;;;23.03;45.16
11198;BME280;5655;48.744;9.162;2023-02-21T13:20:55;96286.13;;;22.48;47.59
11198;BME280;5655;48.744;9.162;2023-02-21T13:23:41;96277.81;;;23.08;46.06
11198;BME280;5655;48.744;9.162;2023-02-21T13:26:28;96280.03;;;23.00;44.61
11198;BME280;5655;48.744;9.162;2023-02-21T13:28:57;96275.47;;;22.97;45.82
11198;BME280;5655;48.744;9.162;2023-02-21T13:31:26;96270.34;;;22.99;44.59
11198;BME280;5655;48.744;9.162;2023-02-21T13:33:59;96266.97;;;22.39;44.97
11198;BME280;5655;48.744;9.162;2023-02-21T13:36:27;96260.06;;;22.82;45.21
11198;BME280;5655;48.744;9.162;2023-02-21T13:41:46;96254.28;;;22.80;45.34
11198;BME280;5655;48.744;9.162;2023-02-21T13:44:27;96247.22;;;22.70;45.41
11198;BME280;5655;48.744;9.162;2023-02-21T13:49:43;96241.13;;;22.87;45.49
11198;BME280;5655;48.744;9.162;2023-02-21T13:57:36;96221.28;;;22.31;44.82
11198;BME280;5655;48.744;9.162;2023-02-21T14:06:13;96222.91;;;22.06;45.23
11198;BME280;5655;48.744;9.162;2023-02-21T14:13:38;96216.09;;;21.77;45.82
11198;BME280;5655;48.744;9.162;2023-02-21T14:18:54;96200.34;;;22.06;47.14
11198;BME280;5655;48.744;9.162;2023-02-21T14:21:31;96199.72;;;21.30;47.18
11198;BME280;5655;48.744;9.162;2023-02-21T14:31:55;96186.75;;;21.21;47.19
11198;BME280;5655;48.744;9.162;2023-02-21T14:37:32;96188.03;;;20.91;48.33
11198;BME280;5655;48.744;9.162;2023-02-21T14:49:00;96176.25;;;20.81;48.00
11198;BME280;5655;48.744;9.162;2023-02-21T14:53:59;96170.16;;;20.77;49.08
11198;BME280;5655;48.744;9.162;2023-02-21T15:02:21;96172.03;;;20.10;49.48
11198;BME280;5655;48.744;9.162;2023-02-21T15:05:17;96163.34;;;19.86;50.56
11198;BME280;5655;48.744;9.162;2023-02-21T15:08:01;96153.22;;;20.16;50.19
11198;BME280;5655;48.744;9.162;2023-02-21T15:10:32;96161.06;;;20.14;49.82
11198;BME280;5655;48.744;9.162;2023-02-21T15:13:03;96157.44;;;20.04;50.18
11198;BME280;5655;48.744;9.162;2023-02-21T15:15:40;96157.09;;;19.41;53.74
11198;BME280;5655;48.744;9.162;2023-02-21T15:18:12;96156.66;;;19.10;55.77
11198;BME280;5655;48.744;9.162;2023-02-21T15:23:27;96156.66;;;19.42;54.98
11198;BME280;5655;48.744;9.162;2023-02-21T15:25:58;96148.69;;;19.52;55.15
11198;BME280;5655;48.744;9.162;2023-02-21T15:28:28;96157.50;;;19.39;55.93
11198;BME280;5655;48.744;9.162;2023-02-21T15:31:00;96146.84;;;19.32;57.44
11198;BME280;5655;48.744;9.162;2023-02-21T15:33:34;96148.94;;;19.41;56.75
11198;BME280;5655;48.744;9.162;2023-02-21T15:38:31;96144.72;;;19.85;54.81
11198;BME280;5655;48.744;9.162;2023-02-21T15:41:12;96137.31;;;19.24;57.14
11198;BME280;5655;48.744;9.162;2023-02-21T15:43:52;96143.09;;;18.94;58.36
11198;BME280;5655;48.744;9.162;2023-02-21T15:46:33;96131.16;;;19.24;57.53
11198;BME280;5655;48.744;9.162;2023-02-21T15:49:03;96137.66;;;19.10;57.64
11198;BME280;5655;48.744;9.162;2023-02-21T15:51:29;96123.66;;;18.79;59.39